createdAt,value
2018-01-12T00:01:45.293Z,113.33
2018-01-12T00:04:18.286Z,114.67
2018-01-12T00:06:45.032Z,101.47
2018-01-12T00:09:12.688Z,98.47
2018-01-12T00:11:39.430Z,111.03
2018-01-12T00:14:06.224Z,95.77
2018-01-12T00:16:51.503Z,95.47
2018-01-12T00:19:30.981Z,94.40
2018-01-12T00:21:58.678Z,87.57
2018-01-12T00:24:27.348Z,87.67
2018-01-12T00:26:54.128Z,92.07
2018-01-12T00:29:22.813Z,82.33
2018-01-12T00:31:50.528Z,86.03
2018-01-12T00:34:21.802Z,80.40
2018-01-12T00:36:52.891Z,76.27
2018-01-12T00:39:21.582Z,86.20
2018-01-12T00:41:48.308Z,79.13
2018-01-12T00:44:15.120Z,81.47
2018-01-12T00:46:42.818Z,78.80
2018-01-12T00:49:14.587Z,72.43
2018-01-12T00:51:42.016Z,73.13
2018-01-12T00:54:12.369Z,66.33
2018-01-12T00:56:45.918Z,78.47
2018-01-12T01:01:59.026Z,80.97
2018-01-12T01:07:11.066Z,93.53
2018-01-12T01:09:37.811Z,82.63
2018-01-12T01:12:06.447Z,87.90
2018-01-12T01:14:34.142Z,92.30
2018-01-12T01:17:01.857Z,81.60
2018-01-12T01:19:33.470Z,70.47
2018-01-12T01:22:00.285Z,81.93
2018-01-12T01:24:26.988Z,87.33
2018-01-12T01:26:57.969Z,78.83
2018-01-12T01:29:24.786Z,83.53
2018-01-12T01:31:51.591Z,87.57
2018-01-12T01:34:20.303Z,90.20
2018-01-12T01:36:55.756Z,84.27
2018-01-12T01:39:22.454Z,84.53
2018-01-12T01:41:53.286Z,81.33
2018-01-12T01:44:25.585Z,89.80
2018-01-12T01:46:54.363Z,89.10
2018-01-12T01:49:23.109Z,80.43
2018-01-12T01:51:55.341Z,77.83
2018-01-12T01:54:26.076Z,89.83
2018-01-12T01:56:54.799Z,79.43
2018-01-12T01:59:22.782Z,76.27
2018-01-12T02:04:36.304Z,73.83
2018-01-12T02:07:07.972Z,77.40
2018-01-12T02:09:39.544Z,64.20
2018-01-12T02:12:07.303Z,65.97
2018-01-12T02:14:38.451Z,69.27
2018-01-12T02:17:09.424Z,66.87
2018-01-12T02:19:37.134Z,70.77
2018-01-12T02:22:08.650Z,69.70
2018-01-12T02:24:41.362Z,70.67
2018-01-12T02:27:12.960Z,67.53
2018-01-12T02:35:30.002Z,70.07
2018-01-12T02:37:57.802Z,80.70
2018-01-12T02:43:23.877Z,61.10
2018-01-12T02:51:30.650Z,63.07
2018-01-12T02:54:06.248Z,69.77
2018-01-12T02:56:32.934Z,73.23
2018-01-12T02:59:03.455Z,68.23
2018-01-12T03:01:36.070Z,61.73
2018-01-12T03:04:21.390Z,63.30
2018-01-12T03:06:48.102Z,59.33
2018-01-12T03:09:15.534Z,59.53
2018-01-12T03:11:43.191Z,64.53
2018-01-12T03:14:10.924Z,57.23
2018-01-12T03:16:52.417Z,66.83
2018-01-12T03:19:19.142Z,66.37
2018-01-12T03:21:47.787Z,57.47
2018-01-12T03:24:19.994Z,60.90
2018-01-12T03:27:03.986Z,58.67
2018-01-12T03:29:32.730Z,71.63
2018-01-12T03:34:52.056Z,58.77
2018-01-12T03:37:22.931Z,63.93
2018-01-12T03:42:36.916Z,69.77
2018-01-12T03:45:08.000Z,74.97
2018-01-12T03:47:35.710Z,64.70
2018-01-12T03:50:04.414Z,70.53
2018-01-12T03:52:35.586Z,74.70
2018-01-12T03:55:13.858Z,68.73
2018-01-12T03:57:44.832Z,76.47
2018-01-12T04:00:16.424Z,86.00
2018-01-12T04:02:45.115Z,84.17
2018-01-12T04:05:12.829Z,86.77
2018-01-12T04:07:48.894Z,100.07
2018-01-12T04:10:15.609Z,84.47
2018-01-12T04:12:42.298Z,87.07
2018-01-12T04:18:13.116Z,116.67
2018-01-12T04:20:46.558Z,103.13
2018-01-12T04:23:13.298Z,107.07
2018-01-12T04:31:26.151Z,83.27
2018-01-12T04:34:02.517Z,60.33
2018-01-12T04:36:47.365Z,84.37
2018-01-12T04:39:32.951Z,87.33
2018-01-12T04:42:11.233Z,92.67
2018-01-12T04:47:27.440Z,93.00
2018-01-12T04:49:56.116Z,81.87
2018-01-12T04:52:22.852Z,79.53
2018-01-12T04:54:51.583Z,83.83
2018-01-12T04:57:18.322Z,81.30
2018-01-12T05:02:36.171Z,76.47
2018-01-12T05:05:08.545Z,71.37
2018-01-12T05:07:35.265Z,73.30
2018-01-12T05:10:07.539Z,68.50
2018-01-12T05:12:34.253Z,77.07
2018-01-12T05:15:12.694Z,62.50
2018-01-12T05:20:24.540Z,45.93
2018-01-12T05:22:55.961Z,57.87
2018-01-12T05:25:26.517Z,49.10
2018-01-12T05:27:54.179Z,51.10
2018-01-12T05:30:26.308Z,48.03
2018-01-12T05:32:58.310Z,48.00
2018-01-12T05:35:26.063Z,42.13
2018-01-12T05:37:52.840Z,48.30
2018-01-12T05:40:19.532Z,45.77
2018-01-12T05:42:48.306Z,44.57
2018-01-12T05:45:19.922Z,46.80
2018-01-12T05:47:50.619Z,49.27
2018-01-12T05:50:18.340Z,44.83
2018-01-12T05:52:47.010Z,55.50
2018-01-12T05:55:14.704Z,45.43
2018-01-12T05:57:41.460Z,42.83
2018-01-12T06:00:13.554Z,47.83
2018-01-12T06:05:44.448Z,44.90
2018-01-12T06:08:14.370Z,47.57
2018-01-12T06:10:41.129Z,55.73
2018-01-12T06:13:11.459Z,45.77
2018-01-12T06:15:51.523Z,48.03
2018-01-12T06:18:19.830Z,51.07
2018-01-12T06:20:59.801Z,47.40
2018-01-12T06:23:31.155Z,49.57
2018-01-12T06:25:58.110Z,46.53
2018-01-12T06:28:25.861Z,52.07
2018-01-12T06:30:54.527Z,54.60
2018-01-12T06:33:21.270Z,49.07
2018-01-12T06:35:48.015Z,39.23
2018-01-12T06:38:14.741Z,44.57
2018-01-12T06:43:27.711Z,43.63
2018-01-12T06:45:54.450Z,55.77
2018-01-12T06:48:23.974Z,49.33
2018-01-12T06:53:36.700Z,55.77
2018-01-12T06:56:08.472Z,57.60
2018-01-12T06:58:39.273Z,61.40
2018-01-12T07:01:11.806Z,50.93
2018-01-12T07:03:47.203Z,64.13
2018-01-12T07:06:23.415Z,62.97
2018-01-12T07:11:37.693Z,54.63
2018-01-12T07:14:09.042Z,55.67
2018-01-12T07:16:54.969Z,63.87
2018-01-12T07:19:22.686Z,61.40
2018-01-12T07:24:48.889Z,54.93
2018-01-12T07:27:16.602Z,58.40
2018-01-12T07:29:44.257Z,48.67
2018-01-12T07:32:15.414Z,58.70
2018-01-12T07:34:43.411Z,45.43
2018-01-12T07:39:56.817Z,46.23
2018-01-12T07:42:28.391Z,48.37
2018-01-12T07:44:56.073Z,46.80
2018-01-12T07:47:22.811Z,47.80
2018-01-12T07:49:57.248Z,43.90
2018-01-12T07:52:25.019Z,49.20
2018-01-12T07:54:51.731Z,50.03
2018-01-12T07:57:18.427Z,49.93
2018-01-12T07:59:55.783Z,47.90
2018-01-12T08:02:29.078Z,53.47
2018-01-12T08:04:59.329Z,50.13
2018-01-12T08:07:31.886Z,50.33
2018-01-12T08:12:43.710Z,50.27
2018-01-12T08:15:10.456Z,53.87
2018-01-12T08:17:46.138Z,55.73
2018-01-12T08:20:13.870Z,46.33
2018-01-12T08:22:41.556Z,51.37
2018-01-12T08:25:08.305Z,54.47
2018-01-12T08:27:35.009Z,53.20
2018-01-12T08:32:49.433Z,64.13
2018-01-12T08:38:10.333Z,59.67
2018-01-12T08:40:42.534Z,58.43
2018-01-12T08:43:18.677Z,56.23
2018-01-12T08:45:46.393Z,53.00
2018-01-12T08:48:19.824Z,48.20
2018-01-12T08:50:53.859Z,66.37
2018-01-12T08:53:24.192Z,62.33
2018-01-12T08:55:50.931Z,59.97
2018-01-12T08:58:18.419Z,61.50
2018-01-12T09:00:51.079Z,56.87
2018-01-12T09:03:19.822Z,53.20
2018-01-12T09:05:46.522Z,55.03
2018-01-12T09:08:13.258Z,43.07
2018-01-12T09:10:45.863Z,50.80
2018-01-12T09:13:19.313Z,53.67
2018-01-12T09:15:46.088Z,55.33
2018-01-12T09:18:22.710Z,61.67
2018-01-12T09:20:50.125Z,57.57
2018-01-12T09:23:24.703Z,44.90
2018-01-12T09:25:51.413Z,59.97
2018-01-12T09:28:18.223Z,60.47
2018-01-12T09:30:44.935Z,54.07
2018-01-12T09:33:11.652Z,56.17
2018-01-12T09:35:38.754Z,53.77
2018-01-12T09:38:11.372Z,50.80
2018-01-12T09:40:55.890Z,52.80
2018-01-12T09:43:23.202Z,55.27
2018-01-12T09:45:51.934Z,55.30
2018-01-12T09:48:25.243Z,69.77
2018-01-12T09:50:55.130Z,60.73
2018-01-12T09:53:26.826Z,61.87
2018-01-12T09:55:53.575Z,50.00
2018-01-12T09:58:33.491Z,61.63
2018-01-12T10:01:07.709Z,47.47
2018-01-12T10:03:40.583Z,50.87
2018-01-12T10:09:01.310Z,63.37
2018-01-12T10:11:29.061Z,60.63
2018-01-12T10:20:03.292Z,66.03
2018-01-12T10:22:35.621Z,55.00
2018-01-12T10:25:14.263Z,64.53
2018-01-12T10:27:41.975Z,69.93
2018-01-12T10:30:14.643Z,61.07
2018-01-12T10:32:44.310Z,62.83
2018-01-12T10:35:21.712Z,59.73
2018-01-12T10:37:58.526Z,51.47
2018-01-12T10:40:38.221Z,54.17
2018-01-12T10:45:53.070Z,44.07
2018-01-12T10:48:25.936Z,54.40
2018-01-12T10:51:02.497Z,63.73
2018-01-12T10:53:30.860Z,67.63
2018-01-12T10:56:03.450Z,58.83
2018-01-12T10:58:34.173Z,61.43
2018-01-12T11:01:00.902Z,66.13
2018-01-12T11:03:27.596Z,49.60
2018-01-12T11:05:55.302Z,40.00
2018-01-12T11:08:21.995Z,53.27
2018-01-12T11:13:35.227Z,51.30
2018-01-12T11:16:02.893Z,51.77
2018-01-12T11:21:16.636Z,51.23
2018-01-12T11:23:44.312Z,45.93
2018-01-12T11:26:19.435Z,42.93
2018-01-12T11:28:50.271Z,43.83
2018-01-12T11:31:18.995Z,44.20
2018-01-12T11:33:50.930Z,43.53
2018-01-12T11:36:19.657Z,40.73
2018-01-12T11:38:51.345Z,48.27
2018-01-12T11:41:23.855Z,36.70
2018-01-12T11:43:51.754Z,39.53
2018-01-12T11:46:19.404Z,39.43
2018-01-12T11:48:47.108Z,44.10
2018-01-12T11:51:26.364Z,41.63
2018-01-12T12:02:14.084Z,33.77
2018-01-12T12:04:46.392Z,33.70
2018-01-12T12:07:21.201Z,26.27
2018-01-12T12:12:33.323Z,33.63
2018-01-12T12:15:02.091Z,33.07
2018-01-12T12:17:29.208Z,34.47
2018-01-12T12:19:55.958Z,31.53
2018-01-12T12:22:23.624Z,37.37
2018-01-12T12:24:50.339Z,30.83
2018-01-12T12:27:17.857Z,32.10
2018-01-12T12:29:45.812Z,29.93
2018-01-12T12:32:14.375Z,35.07
2018-01-12T12:34:43.288Z,31.97
2018-01-12T12:37:10.045Z,28.97
2018-01-12T12:39:54.861Z,33.37
2018-01-12T12:42:22.583Z,26.33
2018-01-12T12:47:39.079Z,36.07
2018-01-12T12:50:09.959Z,25.97
2018-01-12T12:52:37.736Z,38.13
2018-01-12T12:55:10.318Z,35.50
2018-01-12T12:57:38.079Z,40.37
2018-01-12T13:02:50.194Z,40.43
2018-01-12T13:05:17.954Z,41.07
2018-01-12T13:10:36.461Z,39.50
2018-01-12T13:13:04.167Z,40.77
2018-01-12T13:15:45.208Z,41.20
2018-01-12T13:20:57.155Z,41.80
2018-01-12T13:23:26.634Z,38.40
2018-01-12T13:25:54.341Z,43.77
2018-01-12T13:28:38.979Z,47.60
2018-01-12T13:31:05.685Z,38.70
2018-01-12T13:33:32.407Z,44.63
2018-01-12T13:36:01.139Z,45.67
2018-01-12T13:38:27.832Z,38.70
2018-01-12T13:46:33.825Z,52.10
2018-01-12T13:49:02.541Z,47.47
2018-01-12T13:51:36.063Z,43.40
2018-01-12T13:54:04.446Z,39.10
2018-01-12T13:56:33.125Z,49.20
2018-01-12T13:59:00.783Z,56.23
2018-01-12T14:01:27.510Z,55.33
2018-01-12T14:03:54.198Z,49.63
2018-01-12T14:06:20.901Z,50.47
2018-01-12T14:08:49.616Z,47.80
2018-01-12T14:11:17.107Z,51.10
2018-01-12T14:13:43.871Z,64.67
2018-01-12T14:16:11.570Z,49.77
2018-01-12T14:18:47.135Z,64.93
2018-01-12T14:24:01.011Z,61.60
2018-01-12T14:26:27.719Z,48.03
2018-01-12T14:29:08.611Z,63.00
2018-01-12T14:31:38.898Z,49.50
2018-01-12T14:34:05.699Z,52.47
2018-01-12T14:36:32.435Z,56.30
2018-01-12T14:38:59.417Z,51.17
2018-01-12T14:41:31.311Z,53.37
2018-01-12T14:43:59.067Z,56.40
2018-01-12T14:46:26.413Z,63.33
2018-01-12T14:48:53.109Z,55.20
2018-01-12T14:51:20.705Z,61.80
2018-01-12T14:54:03.578Z,54.77
2018-01-12T14:56:30.302Z,54.83
2018-01-12T14:58:56.997Z,73.27
2018-01-12T15:01:28.999Z,66.47
2018-01-12T15:03:55.701Z,67.17
2018-01-12T15:06:22.399Z,53.80
2018-01-12T15:08:51.439Z,69.43
2018-01-12T15:11:18.142Z,57.70
2018-01-12T15:13:46.531Z,56.40
2018-01-12T15:16:13.347Z,64.63
2018-01-12T15:21:27.471Z,62.43
2018-01-12T15:23:54.224Z,64.73
2018-01-12T15:26:21.592Z,63.07
2018-01-12T15:28:48.983Z,64.07
2018-01-12T15:31:15.695Z,59.43
2018-01-12T15:36:17.376Z,59.43
2018-01-12T15:38:44.057Z,65.27
2018-01-12T15:41:10.756Z,61.17
2018-01-12T15:43:37.482Z,66.40
2018-01-12T15:46:04.179Z,63.60
2018-01-12T15:48:30.893Z,64.87
2018-01-12T15:50:57.611Z,69.60
2018-01-12T15:53:26.400Z,75.73
2018-01-12T15:55:53.106Z,69.27
2018-01-12T15:58:19.835Z,76.27
2018-01-12T16:00:46.521Z,76.73
2018-01-12T16:03:13.237Z,73.20
2018-01-12T16:05:40.228Z,74.17
2018-01-12T16:08:07.022Z,68.13
2018-01-12T16:10:33.747Z,76.80
2018-01-12T16:13:00.569Z,73.67
2018-01-12T16:15:27.331Z,69.43
2018-01-12T16:17:55.056Z,70.33
2018-01-12T16:20:21.803Z,77.27
2018-01-12T16:22:48.507Z,69.70
2018-01-12T16:25:15.247Z,79.93
2018-01-12T16:27:41.969Z,74.83
2018-01-12T16:30:08.671Z,70.10
2018-01-12T16:32:35.408Z,67.87
2018-01-12T16:35:02.140Z,67.03
2018-01-12T16:37:29.286Z,69.17
2018-01-12T16:39:58.000Z,71.20
2018-01-12T16:42:24.856Z,68.63
2018-01-12T16:44:51.685Z,61.70
2018-01-12T16:47:18.372Z,68.33
2018-01-12T16:49:45.194Z,66.33
2018-01-12T16:52:11.871Z,62.40
2018-01-12T16:54:38.568Z,66.43
2018-01-12T16:57:05.296Z,69.07
2018-01-12T16:59:32.710Z,58.23
2018-01-12T17:01:59.406Z,82.53
2018-01-12T17:04:26.162Z,71.83
2018-01-12T17:06:52.852Z,61.53
2018-01-12T17:09:19.549Z,69.13
2018-01-12T17:11:46.280Z,51.53
2018-01-12T17:14:13.019Z,59.40
2018-01-12T17:16:39.724Z,62.87
2018-01-12T17:19:06.432Z,66.23
2018-01-12T17:21:33.120Z,62.93
2018-01-12T17:23:59.812Z,63.27
2018-01-12T17:26:26.558Z,61.23
2018-01-12T17:29:11.604Z,65.97
2018-01-12T17:31:38.880Z,67.97
2018-01-12T17:34:05.589Z,56.73
2018-01-12T17:39:10.537Z,53.73
2018-01-12T17:41:42.472Z,63.47
2018-01-12T17:46:43.306Z,63.23
2018-01-12T17:49:13.391Z,50.77
2018-01-12T17:51:40.710Z,60.30
2018-01-12T17:54:07.396Z,60.87
2018-01-12T17:56:34.180Z,43.20
2018-01-12T17:59:01.388Z,55.77
2018-01-12T18:01:35.403Z,57.80
2018-01-12T18:04:15.780Z,61.83
2018-01-12T18:07:00.533Z,59.67
2018-01-12T18:09:30.988Z,57.07
2018-01-12T18:14:44.864Z,54.47
2018-01-12T18:17:11.579Z,60.27
2018-01-12T18:19:38.288Z,54.70
2018-01-12T18:22:05.060Z,50.27
2018-01-12T18:24:31.741Z,53.30
2018-01-12T18:26:58.435Z,50.93
2018-01-12T18:29:25.193Z,44.67
2018-01-12T18:31:51.889Z,46.27
2018-01-12T18:34:18.589Z,48.37
2018-01-12T18:36:45.324Z,52.50
2018-01-12T18:39:12.040Z,50.57
2018-01-12T18:41:38.723Z,49.03
2018-01-12T18:44:05.453Z,46.17
2018-01-12T18:46:32.923Z,50.80
2018-01-12T18:48:59.648Z,57.00
2018-01-12T18:51:26.388Z,49.17
2018-01-12T18:53:53.102Z,40.97
2018-01-12T18:56:28.742Z,42.90
2018-01-12T18:58:58.789Z,40.93
2018-01-12T19:04:23.223Z,41.97
2018-01-12T19:06:49.921Z,47.43
2018-01-12T19:09:16.607Z,41.93
2018-01-12T19:11:43.315Z,42.40
2018-01-12T19:14:10.009Z,50.37
2018-01-12T19:16:36.983Z,52.20
2018-01-12T19:19:03.711Z,48.60
2018-01-12T19:21:30.395Z,50.80
2018-01-12T19:23:57.085Z,47.23
2018-01-12T19:26:24.815Z,46.20
2018-01-12T19:28:51.631Z,44.90
2018-01-12T19:31:18.321Z,36.80
2018-01-12T19:34:01.317Z,41.50
2018-01-12T19:36:29.695Z,37.53
2018-01-12T19:38:56.410Z,41.93
2018-01-12T19:41:24.005Z,44.97
2018-01-12T19:43:50.703Z,48.20
2018-01-12T19:46:17.419Z,52.33
2018-01-12T19:48:47.066Z,40.00
2018-01-12T19:51:13.815Z,35.03
2018-01-12T19:53:41.755Z,44.37
2018-01-12T19:56:08.493Z,38.03
2018-01-12T19:58:35.215Z,34.07
2018-01-12T20:01:01.999Z,38.67
2018-01-12T20:03:28.714Z,40.03
2018-01-12T20:05:55.493Z,33.90
2018-01-12T20:08:22.222Z,42.40
2018-01-12T20:10:48.897Z,45.67
2018-01-12T20:13:15.599Z,35.73
2018-01-12T20:15:42.322Z,41.73
2018-01-12T20:18:09.015Z,40.07
2018-01-12T20:20:35.953Z,36.50
2018-01-12T20:23:02.717Z,40.30
2018-01-12T20:25:29.403Z,38.47
2018-01-12T20:27:56.359Z,38.07
2018-01-12T20:30:23.388Z,37.77
2018-01-12T20:32:50.115Z,39.83
2018-01-12T20:35:16.799Z,38.83
2018-01-12T20:37:43.505Z,42.67
2018-01-12T20:40:10.490Z,41.93
2018-01-12T20:42:37.257Z,40.53
2018-01-12T20:45:04.225Z,40.43
2018-01-12T20:47:30.960Z,34.50
2018-01-12T20:49:57.668Z,39.30
2018-01-12T20:52:37.024Z,40.50
2018-01-12T20:55:03.727Z,35.50
2018-01-12T20:57:30.550Z,41.43
2018-01-12T20:59:57.254Z,40.83
2018-01-12T21:02:24.837Z,42.53
2018-01-12T21:04:51.533Z,43.93
2018-01-12T21:07:18.242Z,43.03
2018-01-12T21:09:44.940Z,36.77
2018-01-12T21:12:11.630Z,42.23
2018-01-12T21:14:39.216Z,42.40
2018-01-12T21:17:05.910Z,41.37
2018-01-12T21:19:32.594Z,41.57
2018-01-12T21:21:59.314Z,41.23
2018-01-12T21:24:25.997Z,32.77
2018-01-12T21:26:52.792Z,38.47
2018-01-12T21:29:19.513Z,44.20
2018-01-12T21:31:46.204Z,41.90
2018-01-12T21:34:12.910Z,31.33
2018-01-12T21:36:39.672Z,33.13
2018-01-12T21:39:06.374Z,33.03
2018-01-12T21:41:33.068Z,33.00
2018-01-12T21:43:59.841Z,31.03
2018-01-12T21:46:27.548Z,36.17
2018-01-12T21:49:01.482Z,36.83
2018-01-12T21:51:28.172Z,38.10
2018-01-12T21:53:54.867Z,39.73
2018-01-12T21:56:21.584Z,29.93
2018-01-12T21:58:48.284Z,33.67
2018-01-12T22:01:15.008Z,33.33
2018-01-12T22:03:41.726Z,34.83
2018-01-12T22:06:08.428Z,32.90
2018-01-12T22:08:35.129Z,36.17
2018-01-12T22:11:01.860Z,34.80
2018-01-12T22:13:47.244Z,37.13
2018-01-12T22:16:14.975Z,37.23
2018-01-12T22:18:49.612Z,42.63
2018-01-12T22:21:16.336Z,33.17
2018-01-12T22:26:29.500Z,39.23
2018-01-12T22:28:57.912Z,41.40
2018-01-12T22:31:25.598Z,41.80
2018-01-12T22:33:52.302Z,42.90
2018-01-12T22:36:24.522Z,36.00
2018-01-12T22:38:51.272Z,34.93
2018-01-12T22:41:29.134Z,38.23
2018-01-12T22:43:55.820Z,42.37
2018-01-12T22:46:24.510Z,42.13
2018-01-12T22:48:51.281Z,32.00
2018-01-12T22:54:03.452Z,34.50
2018-01-12T22:56:44.306Z,37.43
2018-01-12T22:59:11.066Z,31.97
2018-01-12T23:01:37.754Z,27.40
2018-01-12T23:04:06.450Z,29.50
2018-01-12T23:06:48.314Z,26.60
2018-01-12T23:12:04.089Z,29.67
2018-01-12T23:14:30.796Z,27.10
2018-01-12T23:16:57.493Z,34.03
2018-01-12T23:19:29.724Z,28.77
2018-01-12T23:21:56.434Z,27.97
2018-01-12T23:24:23.138Z,32.87
2018-01-12T23:29:44.802Z,33.07
2018-01-12T23:32:18.746Z,30.17
2018-01-12T23:34:53.418Z,28.03
2018-01-12T23:37:21.158Z,30.20
2018-01-12T23:39:49.838Z,24.60
2018-01-12T23:42:16.536Z,30.77
2018-01-12T23:44:43.254Z,27.47
2018-01-12T23:47:20.262Z,31.00
2018-01-12T23:49:48.971Z,30.57
2018-01-12T23:52:15.758Z,37.03
2018-01-12T23:54:51.914Z,33.67
2018-01-12T23:57:19.598Z,27.43
2018-01-12T23:59:46.311Z,33.37
